Oklaunion, Texas
Current Conditions -  °F | °C
As of 2:15 PM on Sunday 21 Dec 2014 (Local Time) from KF05 Reporting Station
Broken Clouds Broken Clouds  
Wind Chill: 58°   Ceiling: 4200
Heat Index: 58°   Visibility: 10mi
Dew Point: 43°   Wind: 17mph
Humidity: 56%   Direction: 170°S
Pressure: 29.74"   Gusts: NA
Location:  34.13°N, 99.14°W
Report Text: KF05 212015Z AUTO 17015KT 10SM SCT034 BKN042 15/06 A2974 RMK AO1 T01460060
Loading
Personal Weather Stations






























Interactive Weather Map New forecast layout! Learn more

10-Day Weather Forecast

Advertisements
Track Severe Weather on mobile